createdAt,value
2023-04-26T05:03:16.084Z,18.98
2023-04-26T05:04:17.250Z,6.50
2023-04-26T05:05:15.957Z,5.57
2023-04-26T05:06:16.921Z,5.94
2023-04-26T05:07:16.903Z,5.01
2023-04-26T05:08:15.900Z,5.82
2023-04-26T05:09:16.899Z,6.80
2023-04-26T05:10:15.906Z,6.40
2023-04-26T05:11:16.879Z,5.56
2023-04-26T05:12:16.868Z,5.71
2023-04-26T05:13:15.855Z,5.53
2023-04-26T05:14:15.847Z,4.91
2023-04-26T05:15:16.831Z,3.56
2023-04-26T05:16:16.899Z,4.27
2023-04-26T05:17:16.821Z,4.28
2023-04-26T05:18:16.835Z,3.84
2023-04-26T05:19:15.840Z,4.50
2023-04-26T05:20:16.839Z,5.74
2023-04-26T05:21:16.890Z,6.48
2023-04-26T05:22:16.940Z,6.95
2023-04-26T05:23:16.964Z,6.58
2023-04-26T05:24:16.988Z,5.31
2023-04-26T05:25:16.022Z,4.77
2023-04-26T05:26:17.046Z,4.85
2023-04-26T05:27:17.094Z,4.41
2023-04-26T05:28:17.104Z,4.31
2023-04-26T05:29:16.127Z,4.64
2023-04-26T05:30:17.138Z,4.87
2023-04-26T05:31:17.177Z,5.07
2023-04-26T05:32:16.174Z,4.91
2023-04-26T05:33:17.291Z,5.38
2023-04-26T05:34:17.237Z,4.34
2023-04-26T05:35:17.210Z,5.47
2023-04-26T05:36:17.227Z,5.84
2023-04-26T05:37:17.262Z,6.95
2023-04-26T05:38:17.298Z,8.55
2023-04-26T05:39:16.358Z,6.40
2023-04-26T05:40:17.321Z,4.51
2023-04-26T05:41:17.397Z,3.68
2023-04-26T05:42:17.798Z,3.42
2023-04-26T05:43:17.457Z,3.78
2023-04-26T05:44:16.465Z,3.97
2023-04-26T05:45:17.513Z,3.93
2023-04-26T05:46:17.601Z,4.89
2023-04-26T05:47:17.595Z,5.81
2023-04-26T05:48:17.624Z,5.44
2023-04-26T05:49:17.657Z,4.22
2023-04-26T05:50:16.752Z,4.18
2023-04-26T05:51:17.771Z,3.64
2023-04-26T05:52:17.773Z,3.56
2023-04-26T05:53:17.764Z,2.80
2023-04-26T05:54:17.753Z,3.31
2023-04-26T05:55:16.798Z,2.76
2023-04-26T05:56:17.021Z,2.95
2023-04-26T05:57:17.966Z,3.34
2023-04-26T05:58:17.941Z,4.12
2023-04-26T05:59:17.025Z,4.15
2023-04-26T06:00:17.044Z,4.45
2023-04-26T06:01:17.072Z,3.64
2023-04-26T06:02:18.135Z,3.44
2023-04-26T06:03:18.284Z,3.40
2023-04-26T06:04:17.383Z,3.20
2023-04-26T06:05:17.238Z,3.20
2023-04-26T06:06:18.178Z,2.75
2023-04-26T06:07:18.205Z,3.03
2023-04-26T06:08:17.294Z,3.47
2023-04-26T06:09:20.063Z,2.99
2023-04-26T06:10:17.283Z,2.79
2023-04-26T06:11:18.271Z,3.97
2023-04-26T06:12:18.251Z,5.16
2023-04-26T06:13:18.256Z,4.35
2023-04-26T06:14:29.408Z,2.79
2023-04-26T06:15:18.274Z,2.98
2023-04-26T06:16:17.342Z,3.05
2023-04-26T06:17:18.282Z,3.61
2023-04-26T06:18:17.217Z,3.32
2023-04-26T06:19:18.242Z,4.06
2023-04-26T06:20:17.229Z,3.08
2023-04-26T06:21:17.215Z,4.33
2023-04-26T06:22:18.232Z,2.38
2023-04-26T06:23:20.214Z,2.87
2023-04-26T06:24:18.185Z,2.97
2023-04-26T06:25:18.177Z,3.13
2023-04-26T06:26:17.200Z,3.15
2023-04-26T06:27:18.208Z,2.66
2023-04-26T06:28:18.169Z,2.44
2023-04-26T06:29:18.523Z,2.79
2023-04-26T06:30:17.239Z,2.64
2023-04-26T06:31:18.487Z,2.25
2023-04-26T06:32:18.146Z,2.62
2023-04-26T06:33:18.120Z,2.62
2023-04-26T06:34:17.157Z,2.44
2023-04-26T06:35:18.110Z,1.71
2023-04-26T06:36:18.112Z,2.35
2023-04-26T06:37:17.136Z,3.32
2023-04-26T06:38:18.155Z,2.43
2023-04-26T06:39:17.082Z,3.83
2023-04-26T06:40:17.083Z,3.20
2023-04-26T06:41:18.132Z,2.44
2023-04-26T06:42:17.084Z,2.53
2023-04-26T06:43:18.052Z,3.53
2023-04-26T06:44:18.044Z,3.12
2023-04-26T06:45:17.222Z,3.54
2023-04-26T06:46:18.074Z,3.70
2023-04-26T06:47:18.047Z,3.12
2023-04-26T06:48:18.013Z,2.35
2023-04-26T06:49:18.009Z,3.11
2023-04-26T06:50:18.009Z,2.93
2023-04-26T06:51:18.032Z,3.03
2023-04-26T06:52:16.997Z,4.37
2023-04-26T06:53:18.434Z,3.44
2023-04-26T06:54:18.018Z,3.10
2023-04-26T06:55:16.979Z,2.81
2023-04-26T06:56:18.027Z,2.67
2023-04-26T06:57:18.428Z,3.13
2023-04-26T06:58:17.197Z,4.04
2023-04-26T06:59:18.114Z,3.16
2023-04-26T07:00:17.161Z,3.36
2023-04-26T07:01:18.197Z,3.03
2023-04-26T07:02:18.425Z,4.23
2023-04-26T07:03:18.394Z,3.91
2023-04-26T07:04:18.533Z,4.56
2023-04-26T07:05:17.449Z,3.15
2023-04-26T07:07:37.056Z,3.42
2023-04-26T07:08:38.209Z,3.76
2023-04-26T07:09:37.172Z,3.91
2023-04-26T07:10:38.171Z,3.86
2023-04-26T07:11:38.040Z,4.08
2023-04-26T07:12:37.023Z,3.63
2023-04-26T07:13:41.123Z,3.89
2023-04-26T07:14:39.032Z,4.44
2023-04-26T07:15:37.039Z,4.23
2023-04-26T07:16:38.150Z,4.31
2023-04-26T07:17:38.192Z,4.57
2023-04-26T07:18:38.148Z,4.52
2023-04-26T07:19:37.260Z,5.37
2023-04-26T07:20:38.218Z,4.56
2023-04-26T07:21:38.257Z,4.68
2023-04-26T07:22:37.538Z,4.13
2023-04-26T07:23:38.338Z,4.49
2023-04-26T07:24:38.349Z,4.82
2023-04-26T07:25:38.567Z,5.90
2023-04-26T07:26:38.433Z,4.77
2023-04-26T07:27:37.418Z,5.91
2023-04-26T07:28:37.485Z,5.45
2023-04-26T07:29:38.569Z,5.27
2023-04-26T07:30:38.573Z,5.79
2023-04-26T07:31:37.676Z,6.16
2023-04-26T07:32:38.775Z,5.93
2023-04-26T07:33:37.735Z,6.59
2023-04-26T07:34:38.717Z,6.61
2023-04-26T07:35:38.749Z,6.45
2023-04-26T07:36:38.763Z,7.09
2023-04-26T07:37:37.842Z,6.99
2023-04-26T07:38:37.870Z,7.17
2023-04-26T07:39:38.901Z,6.79
2023-04-26T07:40:38.936Z,7.15
2023-04-26T07:41:38.021Z,8.10
2023-04-26T07:42:38.019Z,7.80
2023-04-26T07:43:39.076Z,8.70
2023-04-26T07:44:39.055Z,7.36
2023-04-26T07:45:39.118Z,6.82
2023-04-26T07:46:39.085Z,7.95
2023-04-26T07:47:39.148Z,7.98
2023-04-26T07:48:38.264Z,8.75
2023-04-26T07:49:39.198Z,9.65
2023-04-26T07:50:39.227Z,8.66
2023-04-26T07:51:39.214Z,8.66
2023-04-26T07:52:38.232Z,8.88
2023-04-26T07:53:38.323Z,8.23
2023-04-26T07:54:39.287Z,8.47
2023-04-26T07:55:39.318Z,8.11
2023-04-26T07:56:39.319Z,8.81
2023-04-26T07:57:39.310Z,7.88
2023-04-26T07:58:38.379Z,7.99
2023-04-26T07:59:39.382Z,7.85
2023-04-26T08:00:39.394Z,7.23
2023-04-26T08:01:38.524Z,7.57
2023-04-26T08:02:44.922Z,7.14
2023-04-26T08:03:39.752Z,6.78
2023-04-26T08:04:39.564Z,6.54
2023-04-26T08:05:39.733Z,7.77
2023-04-26T08:06:38.484Z,7.22
2023-04-26T08:07:38.478Z,7.46
2023-04-26T08:08:39.458Z,7.24
2023-04-26T08:09:39.435Z,7.20
2023-04-26T08:10:39.426Z,5.69
2023-04-26T08:11:38.534Z,7.08
2023-04-26T08:12:39.579Z,7.83
2023-04-26T08:13:38.407Z,7.05
2023-04-26T08:14:38.414Z,6.45
2023-04-26T08:15:38.454Z,6.62
2023-04-26T08:16:39.403Z,7.09
2023-04-26T08:17:38.439Z,7.68
2023-04-26T08:18:39.383Z,7.30
2023-04-26T08:19:39.387Z,8.51
2023-04-26T08:20:39.385Z,7.87
2023-04-26T08:21:39.398Z,6.98
2023-04-26T08:22:39.345Z,6.25
2023-04-26T08:23:38.353Z,6.79
2023-04-26T08:24:39.355Z,6.53
2023-04-26T08:25:38.308Z,8.87
2023-04-26T08:26:38.324Z,9.13
2023-04-26T08:27:39.321Z,7.72
2023-04-26T08:28:39.344Z,8.18
2023-04-26T08:29:39.330Z,8.13
2023-04-26T08:30:39.357Z,8.26
2023-04-26T08:31:38.531Z,7.10
2023-04-26T08:32:38.460Z,7.27
2023-04-26T08:33:39.452Z,7.22
2023-04-26T08:34:39.487Z,7.32
2023-04-26T08:35:39.521Z,6.08
2023-04-26T08:36:38.563Z,6.76
2023-04-26T08:37:39.553Z,6.34
2023-04-26T08:38:39.634Z,6.64
2023-04-26T08:39:39.651Z,6.32
2023-04-26T08:40:39.667Z,6.18
2023-04-26T08:41:39.684Z,6.54
2023-04-26T08:42:39.689Z,6.47
2023-04-26T08:43:39.778Z,6.29
2023-04-26T08:44:38.912Z,6.14
2023-04-26T08:45:39.778Z,5.82
2023-04-26T08:46:38.800Z,6.01
2023-04-26T08:47:39.882Z,6.81
2023-04-26T08:48:38.843Z,6.77
2023-04-26T08:49:39.848Z,6.33
2023-04-26T08:50:39.874Z,6.78
2023-04-26T08:51:38.921Z,7.38
2023-04-26T08:52:39.947Z,7.29
2023-04-26T08:53:40.032Z,6.84
2023-04-26T08:54:40.023Z,6.74
2023-04-26T08:55:39.047Z,6.69
2023-04-26T08:56:39.106Z,7.20
2023-04-26T08:57:40.118Z,8.30
2023-04-26T08:58:40.278Z,7.80
2023-04-26T08:59:40.235Z,6.51
2023-04-26T09:00:40.296Z,5.27
2023-04-26T09:01:40.262Z,3.93
2023-04-26T09:02:40.437Z,4.05
2023-04-26T09:03:39.466Z,3.88
2023-04-26T09:04:39.514Z,3.56
2023-04-26T09:05:40.382Z,3.46
2023-04-26T09:06:40.369Z,3.78
2023-04-26T09:07:40.424Z,4.58
2023-04-26T09:08:39.772Z,3.41
2023-04-26T09:09:39.558Z,4.00
2023-04-26T09:10:40.582Z,4.18
2023-04-26T09:11:39.677Z,4.81
2023-04-26T09:12:39.629Z,4.66
2023-04-26T09:13:40.648Z,3.59
2023-04-26T09:14:39.689Z,4.20
2023-04-26T09:15:39.724Z,3.86
2023-04-26T09:16:39.933Z,3.46
2023-04-26T09:17:40.810Z,3.57
2023-04-26T09:18:40.806Z,3.50
2023-04-26T09:19:39.837Z,3.16
2023-04-26T09:20:40.854Z,3.72
2023-04-26T09:21:40.862Z,3.97
2023-04-26T09:22:40.903Z,3.98
2023-04-26T09:23:39.952Z,3.53
2023-04-26T09:24:39.970Z,3.92
2023-04-26T09:25:39.972Z,4.28
2023-04-26T09:26:39.978Z,4.06
2023-04-26T09:27:39.981Z,5.58
2023-04-26T09:28:41.032Z,4.88
2023-04-26T09:29:41.129Z,5.93
2023-04-26T09:30:41.075Z,4.59
2023-04-26T09:31:41.196Z,4.23
2023-04-26T09:32:41.294Z,4.46
2023-04-26T09:33:41.272Z,5.40
2023-04-26T09:34:41.253Z,4.53
2023-04-26T09:35:41.270Z,4.82
2023-04-26T09:36:41.336Z,5.24
2023-04-26T09:37:54.420Z,5.18
2023-04-26T09:38:41.288Z,5.43
2023-04-26T09:39:41.303Z,4.63
2023-04-26T09:40:40.264Z,4.95
2023-04-26T09:41:40.260Z,5.16
2023-04-26T09:42:40.248Z,5.67
2023-04-26T09:43:41.238Z,5.01
2023-04-26T09:44:41.256Z,5.22
2023-04-26T09:45:41.231Z,5.15
2023-04-26T09:46:41.267Z,4.78
2023-04-26T09:47:41.225Z,4.48
2023-04-26T09:48:41.309Z,4.86
2023-04-26T09:49:40.770Z,4.52
2023-04-26T09:50:41.188Z,4.39
2023-04-26T09:51:40.216Z,4.52
2023-04-26T09:52:41.186Z,5.31
2023-04-26T09:53:41.210Z,4.39
2023-04-26T09:54:41.178Z,4.38
2023-04-26T09:55:41.183Z,3.70
2023-04-26T09:56:41.151Z,3.67
2023-04-26T09:57:41.165Z,3.57
2023-04-26T09:58:40.121Z,3.57
2023-04-26T09:59:41.156Z,3.21
2023-04-26T10:00:41.229Z,3.34
2023-04-26T10:01:40.126Z,3.51
2023-04-26T10:02:40.192Z,4.20
2023-04-26T10:03:41.277Z,4.16
2023-04-26T10:04:41.249Z,3.96
2023-04-26T10:05:40.084Z,3.57
2023-04-26T10:06:40.069Z,4.45
2023-04-26T10:07:40.069Z,4.19
2023-04-26T10:08:41.110Z,3.17
2023-04-26T10:09:40.076Z,3.38
2023-04-26T10:10:40.059Z,3.61
2023-04-26T10:11:41.077Z,3.37
2023-04-26T10:12:40.021Z,3.59
2023-04-26T10:13:41.028Z,2.99
2023-04-26T10:14:40.024Z,4.30
2023-04-26T10:15:41.041Z,3.89
2023-04-26T10:16:40.043Z,4.01
2023-04-26T10:17:40.014Z,4.17
2023-04-26T10:18:39.984Z,4.80
2023-04-26T10:19:40.002Z,4.07
2023-04-26T10:20:40.990Z,3.89
2023-04-26T10:21:40.996Z,4.67
2023-04-26T10:22:41.040Z,4.62
2023-04-26T10:23:40.058Z,4.19
2023-04-26T10:24:41.056Z,3.96
2023-04-26T10:25:40.071Z,3.88
2023-04-26T10:26:41.079Z,3.88
2023-04-26T10:27:41.205Z,3.98
2023-04-26T10:28:41.175Z,3.73
2023-04-26T10:29:40.190Z,3.80
2023-04-26T10:30:40.195Z,3.54
2023-04-26T10:31:41.295Z,3.70
2023-04-26T10:32:41.250Z,4.10
2023-04-26T10:33:40.242Z,3.99
2023-04-26T10:34:41.250Z,4.49
2023-04-26T10:35:40.267Z,4.07
2023-04-26T10:36:41.416Z,3.84
2023-04-26T10:37:41.320Z,4.09
2023-04-26T10:38:41.386Z,3.99
2023-04-26T10:39:41.406Z,3.72
2023-04-26T10:40:40.467Z,3.61
2023-04-26T10:41:41.496Z,3.22
2023-04-26T10:42:41.795Z,3.00
2023-04-26T10:43:42.283Z,3.64
2023-04-26T10:44:40.621Z,3.29
2023-04-26T10:45:42.047Z,3.38
2023-04-26T10:46:40.755Z,3.74
2023-04-26T10:47:41.679Z,3.94
2023-04-26T10:48:40.642Z,4.01
2023-04-26T10:49:40.817Z,3.61
2023-04-26T10:50:41.807Z,3.94
2023-04-26T10:51:40.763Z,3.61
2023-04-26T10:52:41.753Z,3.60
2023-04-26T10:53:40.763Z,3.91
2023-04-26T10:54:40.787Z,3.87
2023-04-26T10:55:40.793Z,4.03
2023-04-26T10:56:40.842Z,4.32
2023-04-26T10:57:42.029Z,3.84
2023-04-26T10:58:40.865Z,4.12
2023-04-26T10:59:53.900Z,3.56
2023-04-26T11:00:41.860Z,4.02
2023-04-26T11:01:40.900Z,3.57
2023-04-26T11:02:40.964Z,3.47
2023-04-26T11:03:42.134Z,3.61
2023-04-26T11:04:41.894Z,3.26
2023-04-26T11:05:41.842Z,3.35
2023-04-26T11:06:41.821Z,3.24
2023-04-26T11:07:41.819Z,3.51
2023-04-26T11:08:41.847Z,3.35
2023-04-26T11:09:40.838Z,3.09
2023-04-26T11:10:41.863Z,2.56
2023-04-26T11:11:41.795Z,2.92
2023-04-26T11:12:41.824Z,2.55
2023-04-26T11:13:41.759Z,2.73
2023-04-26T11:14:41.767Z,2.77
2023-04-26T11:15:40.798Z,3.20
2023-04-26T11:16:41.978Z,2.47
2023-04-26T11:17:40.888Z,2.64
2023-04-26T11:18:40.870Z,2.22
2023-04-26T11:19:40.868Z,2.33
2023-04-26T11:20:41.863Z,2.60
2023-04-26T11:21:40.957Z,2.39
2023-04-26T11:22:40.912Z,2.32
2023-04-26T11:23:41.934Z,2.61
2023-04-26T11:24:41.004Z,2.27
2023-04-26T11:25:41.985Z,2.66
2023-04-26T11:26:40.993Z,2.57
2023-04-26T11:27:42.020Z,2.34
2023-04-26T11:28:42.074Z,2.21
2023-04-26T11:29:42.208Z,2.39
2023-04-26T11:30:41.144Z,3.21
2023-04-26T11:31:42.159Z,2.58
2023-04-26T11:32:41.200Z,2.45
2023-04-26T11:33:42.213Z,2.14
2023-04-26T11:34:42.316Z,2.46
2023-04-26T11:35:42.284Z,2.86
2023-04-26T11:36:42.318Z,2.44
2023-04-26T11:37:41.352Z,2.73
2023-04-26T11:38:42.364Z,2.12
2023-04-26T11:39:41.380Z,2.30
2023-04-26T11:40:41.443Z,2.28
2023-04-26T11:41:41.433Z,2.86
2023-04-26T11:42:42.472Z,2.21
2023-04-26T11:43:41.570Z,1.91
2023-04-26T11:44:41.615Z,2.11
2023-04-26T11:45:42.521Z,2.60
2023-04-26T11:46:41.735Z,2.66
2023-04-26T11:47:41.580Z,2.85
2023-04-26T11:48:42.610Z,2.20
2023-04-26T11:49:41.693Z,2.77
2023-04-26T11:50:41.617Z,2.98
2023-04-26T11:51:42.690Z,3.79
2023-04-26T11:52:42.688Z,2.38
2023-04-26T11:53:41.720Z,3.16
2023-04-26T11:54:41.731Z,3.16
2023-04-26T11:55:41.766Z,1.97
2023-04-26T11:56:42.786Z,2.02
2023-04-26T11:57:42.795Z,2.33
2023-04-26T11:58:41.789Z,2.08
2023-04-26T11:59:42.822Z,1.98
2023-04-26T12:00:42.875Z,2.53
2023-04-26T12:01:42.879Z,2.40
2023-04-26T12:02:43.027Z,2.78
2023-04-26T12:03:43.075Z,2.55
2023-04-26T12:04:42.332Z,2.21
2023-04-26T12:05:42.010Z,2.57
2023-04-26T12:06:43.052Z,4.05
2023-04-26T12:07:42.050Z,2.53
2023-04-26T12:08:43.093Z,2.70
2023-04-26T12:09:43.135Z,2.53
2023-04-26T12:10:42.139Z,3.17
2023-04-26T12:11:43.165Z,2.42
2023-04-26T12:12:42.336Z,1.97
2023-04-26T12:13:43.360Z,2.43
2023-04-26T12:14:43.294Z,2.51
2023-04-26T12:15:42.286Z,2.40
2023-04-26T12:16:43.351Z,2.25
2023-04-26T12:17:43.364Z,2.23
2023-04-26T12:18:43.386Z,2.47
2023-04-26T12:19:43.378Z,2.04
2023-04-26T12:20:42.402Z,2.32
2023-04-26T12:21:43.415Z,2.89
2023-04-26T12:22:43.388Z,2.44
2023-04-26T12:23:42.429Z,2.72
2023-04-26T12:24:42.478Z,3.08
2023-04-26T12:25:43.491Z,2.63
2023-04-26T12:26:43.524Z,2.59
2023-04-26T12:27:43.555Z,2.25
2023-04-26T12:28:43.624Z,2.14
2023-04-26T12:29:43.834Z,1.82
2023-04-26T12:30:42.689Z,2.14
2023-04-26T12:31:43.790Z,2.30
2023-04-26T12:32:43.806Z,2.30
2023-04-26T12:33:42.787Z,1.77
2023-04-26T12:34:43.758Z,2.17
2023-04-26T12:35:42.831Z,2.04
2023-04-26T12:36:42.843Z,2.53
2023-04-26T12:37:43.850Z,2.70
2023-04-26T12:38:42.888Z,2.31
2023-04-26T12:39:42.885Z,2.27
2023-04-26T12:40:46.965Z,2.75
2023-04-26T12:41:42.939Z,2.79
2023-04-26T12:42:43.903Z,2.50
2023-04-26T12:43:43.905Z,1.99
2023-04-26T12:44:42.915Z,2.52
2023-04-26T12:45:42.918Z,1.70
2023-04-26T12:46:42.977Z,1.79
2023-04-26T12:47:42.928Z,1.70
2023-04-26T12:48:43.869Z,2.10
2023-04-26T12:49:43.837Z,1.93
2023-04-26T12:50:42.848Z,2.54
2023-04-26T12:51:43.856Z,2.40
2023-04-26T12:52:42.844Z,2.00
2023-04-26T12:53:43.818Z,2.22
2023-04-26T12:54:43.815Z,2.19
2023-04-26T12:55:43.820Z,2.13
2023-04-26T12:56:42.813Z,2.29
2023-04-26T12:57:43.824Z,1.76
2023-04-26T12:58:42.804Z,2.44
2023-04-26T12:59:43.787Z,2.30
2023-04-26T13:00:44.500Z,2.28
2023-04-26T13:01:42.799Z,1.74
2023-04-26T13:02:43.885Z,2.23
2023-04-26T13:03:44.028Z,1.87
2023-04-26T13:04:42.972Z,1.98
2023-04-26T13:05:43.750Z,1.91
2023-04-26T13:06:43.764Z,1.42
2023-04-26T13:07:42.733Z,1.72
2023-04-26T13:08:42.709Z,2.80
2023-04-26T13:09:43.693Z,1.86
2023-04-26T13:10:43.708Z,2.07
2023-04-26T13:11:42.701Z,1.92
2023-04-26T13:12:43.716Z,1.65
2023-04-26T13:14:42.727Z,1.97
2023-04-26T13:15:43.854Z,1.70
2023-04-26T13:16:43.866Z,1.78
2023-04-26T13:17:42.886Z,1.53
2023-04-26T13:18:43.887Z,1.93
2023-04-26T13:19:43.893Z,2.22
2023-04-26T13:20:44.033Z,1.81
2023-04-26T13:21:43.985Z,1.66
2023-04-26T13:22:43.977Z,1.85
2023-04-26T13:23:42.974Z,2.26
2023-04-26T13:24:43.050Z,2.51
2023-04-26T13:25:43.074Z,2.65
2023-04-26T13:26:43.121Z,2.31
2023-04-26T13:27:44.134Z,2.03
2023-04-26T13:28:44.150Z,1.94
2023-04-26T13:29:43.164Z,2.22
2023-04-26T13:30:44.201Z,1.80
2023-04-26T13:31:43.270Z,2.70
2023-04-26T13:32:43.291Z,2.34
2023-04-26T13:33:44.290Z,1.79
2023-04-26T13:34:44.435Z,2.41
2023-04-26T13:35:43.399Z,2.42
2023-04-26T13:36:44.436Z,2.30
2023-04-26T13:37:43.485Z,2.17
2023-04-26T13:38:43.562Z,2.19
2023-04-26T13:39:43.545Z,2.44
2023-04-26T13:40:43.560Z,2.39
2023-04-26T13:41:44.602Z,2.48
2023-04-26T13:42:43.631Z,2.95
2023-04-26T13:43:43.668Z,2.38
2023-04-26T13:44:44.753Z,2.22
2023-04-26T13:45:44.756Z,2.36
2023-04-26T13:46:44.841Z,2.71
2023-04-26T13:47:44.898Z,2.67
2023-04-26T13:48:43.925Z,3.28
2023-04-26T13:49:44.966Z,2.86
2023-04-26T13:50:44.995Z,3.52
2023-04-26T13:51:44.996Z,3.20
2023-04-26T13:52:44.027Z,3.34
2023-04-26T13:53:44.028Z,3.08
2023-04-26T13:54:44.096Z,2.82
2023-04-26T13:55:45.123Z,2.98
2023-04-26T13:56:44.193Z,2.76
2023-04-26T13:57:45.210Z,2.63
2023-04-26T13:58:45.237Z,2.75
2023-04-26T13:59:44.260Z,2.62
2023-04-26T14:00:45.273Z,2.59
2023-04-26T14:01:44.344Z,2.37
2023-04-26T14:02:45.435Z,2.73
2023-04-26T14:03:45.459Z,2.75
2023-04-26T14:04:45.538Z,2.70
2023-04-26T14:05:44.374Z,3.19
2023-04-26T14:06:44.392Z,2.99
2023-04-26T14:07:45.445Z,2.60
2023-04-26T14:08:44.513Z,2.94
2023-04-26T14:09:45.535Z,2.87
2023-04-26T14:10:44.515Z,3.09
2023-04-26T14:11:49.309Z,2.60
2023-04-26T14:12:45.516Z,2.84
2023-04-26T14:13:44.508Z,2.66
2023-04-26T14:14:45.540Z,2.84
2023-04-26T14:15:45.528Z,3.44
2023-04-26T14:16:45.569Z,3.27
2023-04-26T14:17:44.537Z,2.56
2023-04-26T14:18:45.523Z,3.15
2023-04-26T14:19:45.502Z,2.66
2023-04-26T14:20:44.513Z,2.87
2023-04-26T14:21:44.459Z,2.20
2023-04-26T14:22:45.482Z,2.64
2023-04-26T14:23:45.444Z,2.56
2023-04-26T14:24:44.466Z,2.44
2023-04-26T14:25:45.861Z,2.57
2023-04-26T14:26:45.474Z,2.56
2023-04-26T14:27:45.430Z,2.55
2023-04-26T14:28:45.406Z,2.52
2023-04-26T14:29:45.404Z,2.54
2023-04-26T14:30:45.394Z,2.30
2023-04-26T14:31:44.386Z,2.38
2023-04-26T14:32:45.437Z,2.07
2023-04-26T14:33:45.388Z,2.48
2023-04-26T14:34:45.379Z,2.78
2023-04-26T14:35:45.846Z,2.20
2023-04-26T14:36:45.367Z,2.37
2023-04-26T14:37:44.373Z,2.61
2023-04-26T14:38:44.349Z,2.84
2023-04-26T14:39:44.319Z,2.59
2023-04-26T14:40:45.351Z,2.20
2023-04-26T14:41:45.325Z,2.20
2023-04-26T14:42:45.305Z,2.16
2023-04-26T14:43:44.296Z,2.59
2023-04-26T14:44:45.338Z,2.23
2023-04-26T14:45:45.354Z,2.54
2023-04-26T14:46:45.361Z,2.74
2023-04-26T14:47:44.352Z,2.81
2023-04-26T14:48:45.389Z,2.60
2023-04-26T14:49:45.401Z,2.27
2023-04-26T14:50:45.443Z,2.27
2023-04-26T14:51:45.474Z,2.30
2023-04-26T14:52:45.521Z,2.03
2023-04-26T14:53:45.511Z,2.33
2023-04-26T14:54:45.535Z,2.54
2023-04-26T14:55:44.552Z,2.26
2023-04-26T14:56:44.612Z,2.82
2023-04-26T14:57:44.624Z,2.48
2023-04-26T14:58:44.682Z,2.66
2023-04-26T14:59:45.682Z,2.53
2023-04-26T15:00:45.699Z,2.26
2023-04-26T15:01:44.760Z,2.13
2023-04-26T15:02:45.945Z,1.97
2023-04-26T15:03:45.937Z,2.29
2023-04-26T15:04:45.059Z,2.71
2023-04-26T15:05:45.830Z,2.24
2023-04-26T15:06:44.866Z,2.78
2023-04-26T15:07:44.894Z,3.03
2023-04-26T15:08:45.058Z,2.54
2023-04-26T15:09:45.939Z,3.38
2023-04-26T15:10:45.987Z,2.80
2023-04-26T15:11:46.025Z,3.16
2023-04-26T15:12:46.074Z,2.79
2023-04-26T15:13:46.085Z,2.80
2023-04-26T15:14:46.125Z,2.77
2023-04-26T15:15:45.176Z,2.59
2023-04-26T15:16:46.245Z,2.92
2023-04-26T15:17:45.244Z,2.75
2023-04-26T15:18:45.222Z,2.70
2023-04-26T15:19:46.252Z,3.16
2023-04-26T15:20:46.329Z,2.78
2023-04-26T15:21:46.336Z,2.62
2023-04-26T15:22:46.377Z,3.57
2023-04-26T15:23:46.483Z,2.42
2023-04-26T15:24:46.470Z,2.30
2023-04-26T15:25:45.472Z,2.66
2023-04-26T15:26:46.488Z,2.95
2023-04-26T15:27:45.510Z,2.43
2023-04-26T15:28:45.552Z,2.97
2023-04-26T15:29:46.599Z,2.38
